Time;durP1;ratioP1;P1;durP2;ratioP2;P2;SDS_P1;SDS_P2;PMS_P1;PMS_P2;Temp;Humidity;BMP_temperature;BMP_pressure;BME280_temperature;BME280_humidity;BME280_pressure;Samples;Min_cycle;Max_cycle;Signal;HPM_P1;HPM_P2
2023/01/10 00:01:49;;;;;;;1.40;1.10;;;5.80;98.00;;;;;;4973140;28;20493;-74
2023/01/10 00:04:17;;;;;;;1.20;1.10;;;5.80;98.00;;;;;;4973195;28;20823;-73
2023/01/10 00:06:44;;;;;;;1.10;1.10;;;5.90;98.00;;;;;;4971843;28;20457;-74
2023/01/10 00:09:14;;;;;;;1.30;1.20;;;5.90;98.00;;;;;;4973181;28;20465;-73
2023/01/10 00:14:28;;;;;;;1.37;1.10;;;5.90;98.00;;;;;;4973105;28;20451;-73
2023/01/10 00:16:55;;;;;;;1.80;1.20;;;5.90;98.00;;;;;;4973239;28;20460;-74
2023/01/10 00:19:22;;;;;;;1.20;1.10;;;5.90;98.00;;;;;;4973231;28;20496;-73
2023/01/10 00:21:49;;;;;;;1.10;1.10;;;5.80;98.00;;;;;;4972622;28;20492;-74
2023/01/10 00:24:18;;;;;;;1.10;1.00;;;5.90;98.00;;;;;;4972968;28;20962;-73
2023/01/10 00:26:49;;;;;;;1.60;1.10;;;5.90;98.00;;;;;;4972812;28;20466;-74
2023/01/10 00:29:17;;;;;;;1.20;1.10;;;5.90;98.00;;;;;;4972761;28;20535;-74
2023/01/10 00:31:44;;;;;;;1.20;1.00;;;5.80;98.00;;;;;;4972688;28;20460;-74
2023/01/10 00:34:12;;;;;;;1.10;1.00;;;5.70;98.00;;;;;;4972620;28;20454;-73
2023/01/10 00:36:40;;;;;;;1.47;1.30;;;5.70;98.00;;;;;;4972533;28;20472;-73
2023/01/10 00:39:12;;;;;;;1.30;1.30;;;5.60;98.00;;;;;;4972238;28;20838;-73
2023/01/10 00:44:26;;;;;;;1.20;1.10;;;5.60;98.00;;;;;;4972553;28;20451;-74
2023/01/10 00:46:54;;;;;;;1.10;1.03;;;5.60;98.00;;;;;;4972487;28;20883;-73
2023/01/10 00:49:21;;;;;;;11.97;1.63;;;5.60;98.00;;;;;;4972483;28;20462;-73
2023/01/10 00:51:48;;;;;;;2.07;1.40;;;5.70;98.00;;;;;;4972506;28;20468;-74
2023/01/10 00:54:15;;;;;;;1.77;1.20;;;5.70;98.00;;;;;;4972545;28;20472;-73
2023/01/10 00:56:44;;;;;;;1.20;1.10;;;5.70;98.00;;;;;;4971769;28;20676;-73
2023/01/10 00:59:11;;;;;;;1.20;1.10;;;5.70;98.00;;;;;;4972424;28;20464;-73
2023/01/10 01:01:38;;;;;;;1.20;1.10;;;5.70;98.00;;;;;;4972194;28;20855;-73
2023/01/10 01:04:07;;;;;;;1.63;1.37;;;5.70;98.00;;;;;;4972358;28;20866;-74
2023/01/10 01:06:34;;;;;;;1.10;1.00;;;5.70;98.00;;;;;;4970993;28;20467;-73
2023/01/10 01:09:02;;;;;;;1.40;1.30;;;5.80;98.00;;;;;;4972274;28;21016;-73
2023/01/10 01:11:29;;;;;;;1.27;1.23;;;5.90;98.00;;;;;;4972203;28;20470;-73
2023/01/10 01:13:58;;;;;;;1.10;1.00;;;6.00;98.00;;;;;;4971159;28;20454;-74
2023/01/10 01:16:25;;;;;;;1.37;1.17;;;5.90;98.00;;;;;;4972492;28;20467;-73
2023/01/10 01:18:52;;;;;;;1.10;1.00;;;5.90;98.00;;;;;;4972503;28;20464;-74
2023/01/10 01:21:20;;;;;;;1.30;1.10;;;5.90;98.00;;;;;;4972386;28;20849;-73
2023/01/10 01:23:47;;;;;;;1.10;1.00;;;5.90;98.00;;;;;;4972378;28;20465;-74
2023/01/10 01:26:14;;;;;;;1.83;1.10;;;6.00;98.00;;;;;;4972510;28;20816;-73
2023/01/10 01:28:41;;;;;;;1.20;1.10;;;6.10;98.00;;;;;;4972461;28;20661;-73
2023/01/10 01:31:11;;;;;;;1.20;1.00;;;6.00;98.00;;;;;;4973106;28;20459;-74
2023/01/10 01:33:38;;;;;;;1.30;1.17;;;5.90;98.00;;;;;;4972734;28;20454;-74
2023/01/10 01:36:09;;;;;;;1.10;0.90;;;6.00;98.00;;;;;;4972841;28;20462;-74
2023/01/10 01:38:36;;;;;;;1.30;1.10;;;6.00;98.00;;;;;;4972152;28;20562;-74
2023/01/10 01:41:55;;;;;;;1.27;1.10;;;6.00;98.00;;;;;;4971796;28;20629;-74
2023/01/10 01:44:04;;;;;;;1.10;1.00;;;5.90;98.00;;;;;;4971780;28;20464;-74
2023/01/10 01:46:36;;;;;;;1.50;1.20;;;5.90;98.00;;;;;;4971999;28;20456;-74
2023/01/10 01:49:05;;;;;;;1.50;1.30;;;5.90;98.00;;;;;;4972204;28;20510;-74
2023/01/10 01:51:33;;;;;;;1.83;1.47;;;5.80;98.00;;;;;;4971861;28;20475;-73
2023/01/10 01:54:04;;;;;;;1.50;1.20;;;5.80;98.00;;;;;;4972023;28;20875;-73
2023/01/10 01:56:36;;;;;;;1.77;1.10;;;5.90;98.00;;;;;;4971870;28;20484;-74
2023/01/10 01:59:10;;;;;;;4.23;1.33;;;5.90;98.00;;;;;;4971898;28;20497;-73
2023/01/10 02:01:40;;;;;;;1.50;1.13;;;5.90;98.00;;;;;;4971926;28;20468;-73
2023/01/10 02:04:14;;;;;;;1.10;1.10;;;6.00;98.00;;;;;;4971895;28;20454;-73
2023/01/10 02:06:42;;;;;;;1.10;0.93;;;5.90;98.00;;;;;;4971805;28;20949;-74
2023/01/10 02:09:17;;;;;;;1.47;1.27;;;5.90;98.00;;;;;;4972505;28;20467;-73
2023/01/10 02:11:45;;;;;;;1.97;1.00;;;5.90;98.00;;;;;;4975278;28;20463;-74
2023/01/10 02:14:14;;;;;;;1.10;1.00;;;5.90;98.00;;;;;;4975396;28;20457;-73
2023/01/10 02:16:43;;;;;;;1.40;1.10;;;5.90;98.00;;;;;;4975339;28;20523;-74
2023/01/10 02:19:21;;;;;;;1.83;1.83;;;5.90;98.00;;;;;;4975560;28;20464;-73
2023/01/10 02:22:38;;;;;;;1.20;1.10;;;6.00;98.00;;;;;;4975250;28;20885;-73
2023/01/10 02:25:45;;;;;;;1.10;1.10;;;6.10;98.00;;;;;;4949913;28;20490;-73
2023/01/10 02:28:42;;;;;;;1.10;1.00;;;6.00;98.00;;;;;;4974986;28;20457;-73
2023/01/10 02:31:48;;;;;;;1.10;1.00;;;6.00;98.00;;;;;;4973646;28;20465;-73
2023/01/10 02:34:21;;;;;;;1.20;1.13;;;5.90;98.00;;;;;;4950889;28;20467;-74
2023/01/10 02:36:57;;;;;;;1.10;1.00;;;6.00;98.00;;;;;;4974670;28;20488;-74
2023/01/10 02:39:31;;;;;;;1.10;1.10;;;6.10;98.00;;;;;;4974852;28;20469;-74
2023/01/10 02:42:02;;;;;;;1.27;1.10;;;6.10;98.00;;;;;;4974360;28;20491;-73
2023/01/10 02:44:35;;;;;;;1.20;1.00;;;6.00;98.00;;;;;;4974856;28;20468;-73
2023/01/10 02:47:07;;;;;;;1.40;1.30;;;6.00;98.00;;;;;;4974531;28;20466;-73
2023/01/10 02:49:43;;;;;;;2.03;1.13;;;6.00;98.00;;;;;;4974577;28;20464;-73
2023/01/10 02:52:13;;;;;;;1.20;1.00;;;6.10;98.00;;;;;;4974598;28;20888;-73
2023/01/10 02:54:40;;;;;;;1.30;1.13;;;6.10;98.00;;;;;;4974722;28;20961;-73
2023/01/10 02:57:30;;;;;;;1.40;1.30;;;6.10;98.00;;;;;;4974470;28;20873;-73
2023/01/10 03:00:21;;;;;;;1.70;1.33;;;6.00;98.00;;;;;;4974529;28;20485;-73
2023/01/10 03:03:00;;;;;;;2.07;1.27;;;6.00;98.00;;;;;;4973234;28;20492;-73
2023/01/10 03:05:38;;;;;;;1.50;1.10;;;6.00;98.00;;;;;;4974420;28;20550;-73
2023/01/10 03:08:13;;;;;;;1.30;1.20;;;5.90;98.00;;;;;;4973031;28;20510;-73
2023/01/10 03:10:46;;;;;;;1.20;1.00;;;5.80;98.00;;;;;;4974197;28;20462;-73
2023/01/10 03:13:16;;;;;;;1.10;1.00;;;5.80;98.00;;;;;;4974266;28;20451;-73
2023/01/10 03:15:46;;;;;;;1.60;1.20;;;5.80;98.00;;;;;;4974360;28;20906;-72
2023/01/10 03:18:19;;;;;;;1.70;1.10;;;5.70;98.00;;;;;;4974298;28;20458;-73
2023/01/10 03:20:52;;;;;;;1.30;1.20;;;5.70;98.00;;;;;;4973795;28;20463;-73
2023/01/10 03:23:22;;;;;;;1.70;1.37;;;5.70;98.00;;;;;;4972664;28;20553;-73
2023/01/10 03:25:52;;;;;;;1.10;1.10;;;5.70;98.00;;;;;;4973787;28;20474;-73
2023/01/10 03:28:26;;;;;;;1.20;1.03;;;5.80;98.00;;;;;;4973913;28;20465;-73
2023/01/10 03:31:05;;;;;;;1.10;1.00;;;5.80;98.00;;;;;;4973643;28;20458;-73
2023/01/10 03:33:33;;;;;;;1.30;1.30;;;5.70;98.00;;;;;;4973769;28;20490;-73
2023/01/10 03:36:15;;;;;;;1.73;1.30;;;5.70;98.00;;;;;;4973673;28;20534;-73
2023/01/10 03:38:45;;;;;;;1.13;1.07;;;5.60;98.00;;;;;;4974038;28;20455;-73
2023/01/10 03:41:16;;;;;;;1.10;1.07;;;5.60;98.00;;;;;;4973360;28;20469;-73
2023/01/10 03:46:38;;;;;;;1.10;1.07;;;5.50;98.00;;;;;;4973641;28;20932;-73
2023/01/10 03:49:08;;;;;;;1.10;0.90;;;5.50;98.00;;;;;;4973609;28;20479;-73
2023/01/10 03:51:38;;;;;;;1.20;1.00;;;5.50;98.00;;;;;;4973572;28;20497;-73
2023/01/10 03:54:06;;;;;;;1.10;1.10;;;5.50;98.00;;;;;;4973779;28;20454;-73
2023/01/10 03:56:44;;;;;;;2.17;1.37;;;5.50;98.00;;;;;;4974035;28;20481;-73
2023/01/10 03:59:19;;;;;;;1.20;1.00;;;5.60;98.00;;;;;;4974197;28;20548;-72
2023/01/10 04:01:54;;;;;;;1.10;1.00;;;5.60;98.00;;;;;;4973709;28;20977;-73
2023/01/10 04:04:22;;;;;;;1.40;1.30;;;5.60;98.00;;;;;;4973498;28;20541;-73
2023/01/10 04:06:51;;;;;;;1.33;1.30;;;5.60;98.00;;;;;;4973476;28;20464;-73
2023/01/10 04:09:19;;;;;;;2.30;1.63;;;5.60;98.00;;;;;;4973647;28;20844;-73
2023/01/10 04:11:46;;;;;;;1.23;1.17;;;5.60;98.00;;;;;;4973289;28;20460;-73
2023/01/10 04:14:13;;;;;;;1.30;1.17;;;5.50;98.00;;;;;;4972312;28;20601;-73
2023/01/10 04:16:41;;;;;;;3.00;1.20;;;5.60;98.00;;;;;;4973319;28;20472;-73
2023/01/10 04:19:09;;;;;;;2.47;1.50;;;5.50;98.00;;;;;;4973076;28;20460;-73
2023/01/10 04:21:36;;;;;;;2.90;1.70;;;5.50;98.00;;;;;;4972992;28;20459;-73
2023/01/10 04:24:05;;;;;;;1.20;1.10;;;5.50;98.00;;;;;;4973038;28;20491;-73
2023/01/10 04:26:32;;;;;;;2.10;1.50;;;5.50;98.00;;;;;;4972807;28;20619;-73
2023/01/10 04:28:59;;;;;;;1.50;1.27;;;5.50;98.00;;;;;;4972857;28;20454;-73
2023/01/10 04:31:26;;;;;;;1.20;1.20;;;5.40;98.00;;;;;;4972301;28;20461;-73
2023/01/10 04:33:53;;;;;;;2.90;1.53;;;5.40;98.00;;;;;;4972587;28;20565;-73
2023/01/10 04:36:20;;;;;;;1.40;1.20;;;5.40;98.00;;;;;;4971509;28;21022;-73
2023/01/10 04:38:48;;;;;;;1.53;1.20;;;5.50;98.00;;;;;;4972537;28;20451;-73
2023/01/10 04:41:17;;;;;;;1.20;1.10;;;5.50;98.00;;;;;;4972477;28;20489;-73
2023/01/10 04:43:44;;;;;;;1.10;1.10;;;5.50;98.00;;;;;;4972281;28;21003;-73
2023/01/10 04:46:11;;;;;;;1.10;1.10;;;5.50;98.00;;;;;;4972518;28;20522;-73
2023/01/10 04:48:39;;;;;;;1.30;1.10;;;5.50;98.00;;;;;;4972526;28;20467;-73
2023/01/10 04:51:06;;;;;;;1.30;1.20;;;5.50;98.00;;;;;;4971092;28;21015;-73
2023/01/10 04:53:34;;;;;;;1.20;1.20;;;5.50;98.00;;;;;;4972412;28;20459;-73
2023/01/10 04:56:04;;;;;;;1.83;1.10;;;5.50;98.00;;;;;;4972414;28;20463;-73
2023/01/10 04:58:34;;;;;;;1.97;1.50;;;5.50;98.00;;;;;;4972452;28;20473;-73
2023/01/10 05:01:08;;;;;;;1.10;1.07;;;5.60;98.00;;;;;;4971803;28;20475;-73
2023/01/10 05:03:35;;;;;;;1.50;1.30;;;5.50;98.00;;;;;;4971983;28;20583;-73
2023/01/10 05:06:03;;;;;;;2.37;1.40;;;5.50;98.00;;;;;;4972294;28;20482;-73
2023/01/10 05:08:30;;;;;;;1.20;1.20;;;5.60;98.00;;;;;;4972324;28;21029;-73
2023/01/10 05:10:58;;;;;;;1.20;1.10;;;5.70;98.00;;;;;;4972116;28;20490;-73
2023/01/10 05:13:25;;;;;;;9.80;1.97;;;5.70;98.00;;;;;;4972584;28;20467;-73
2023/01/10 05:15:56;;;;;;;1.60;1.27;;;5.60;98.00;;;;;;4972601;28;20543;-73
2023/01/10 05:18:24;;;;;;;3.73;2.40;;;5.60;98.00;;;;;;4972244;28;20730;-73
2023/01/10 05:20:51;;;;;;;1.20;1.10;;;5.60;98.00;;;;;;4972248;28;20471;-73
2023/01/10 05:23:18;;;;;;;1.13;1.00;;;5.50;98.00;;;;;;4971991;28;20492;-73
2023/01/10 05:25:45;;;;;;;11.13;2.33;;;5.40;98.00;;;;;;4972359;28;20832;-73
2023/01/10 05:28:13;;;;;;;1.90;1.50;;;5.50;98.00;;;;;;4972377;28;20555;-73
2023/01/10 05:30:40;;;;;;;1.20;1.20;;;5.50;98.00;;;;;;4972065;28;20976;-73
2023/01/10 05:33:09;;;;;;;2.70;1.40;;;5.50;98.00;;;;;;4970806;28;20450;-73
2023/01/10 05:35:36;;;;;;;1.77;1.20;;;5.50;98.00;;;;;;4972013;28;20470;-73
2023/01/10 05:38:04;;;;;;;1.30;1.30;;;5.40;98.00;;;;;;4972104;28;20467;-73
2023/01/10 05:40:31;;;;;;;1.20;1.20;;;5.40;98.00;;;;;;4970778;28;20462;-73
2023/01/10 05:42:58;;;;;;;1.73;1.70;;;5.40;98.00;;;;;;4972234;28;21011;-73
2023/01/10 05:45:25;;;;;;;1.50;1.30;;;5.40;98.00;;;;;;4975914;28;20982;-73
2023/01/10 05:47:52;;;;;;;2.13;1.63;;;5.30;98.00;;;;;;4975750;28;20479;-73
2023/01/10 05:50:21;;;;;;;1.80;1.30;;;5.40;98.00;;;;;;4975644;28;20466;-73
2023/01/10 05:52:50;;;;;;;1.30;1.10;;;5.40;98.00;;;;;;4975626;28;20475;-73
2023/01/10 05:55:18;;;;;;;1.20;1.20;;;5.30;98.00;;;;;;4975715;28;20979;-73
2023/01/10 05:57:45;;;;;;;1.20;1.20;;;5.40;98.00;;;;;;4975440;28;20465;-72
2023/01/10 06:00:14;;;;;;;1.83;1.40;;;5.30;98.00;;;;;;4975493;28;20482;-73
2023/01/10 06:02:41;;;;;;;1.20;1.20;;;5.30;98.00;;;;;;4975378;28;20457;-73
2023/01/10 06:05:09;;;;;;;1.87;1.47;;;5.30;98.00;;;;;;4975423;28;20469;-73
2023/01/10 06:07:37;;;;;;;1.20;1.10;;;5.30;98.00;;;;;;4975347;28;20995;-73
2023/01/10 06:10:05;;;;;;;1.30;1.30;;;5.40;98.00;;;;;;4975442;28;20462;-73
2023/01/10 06:12:32;;;;;;;1.50;1.40;;;5.40;98.00;;;;;;4975500;28;20487;-73
2023/01/10 06:15:02;;;;;;;2.60;1.40;;;5.40;98.00;;;;;;4975387;28;20458;-73
2023/01/10 06:17:29;;;;;;;2.50;1.23;;;5.40;98.00;;;;;;4975097;28;20462;-73
2023/01/10 06:19:56;;;;;;;1.30;1.20;;;5.30;98.00;;;;;;4974034;28;20553;-73
2023/01/10 06:22:25;;;;;;;1.50;1.17;;;5.30;98.00;;;;;;4973879;28;20461;-73
2023/01/10 06:24:54;;;;;;;1.17;1.13;;;5.30;98.00;;;;;;4975008;28;20489;-73
2023/01/10 06:27:21;;;;;;;1.80;1.30;;;5.30;98.00;;;;;;4974950;28;20472;-73
2023/01/10 06:29:48;;;;;;;1.30;1.30;;;5.40;98.00;;;;;;4975300;28;20474;-73
2023/01/10 06:32:16;;;;;;;4.20;1.47;;;5.40;98.00;;;;;;4974871;28;21153;-73
2023/01/10 06:34:43;;;;;;;1.20;1.10;;;5.40;98.00;;;;;;4973665;28;20530;-73
2023/01/10 06:37:10;;;;;;;2.70;1.53;;;5.40;98.00;;;;;;4975064;28;20453;-73
2023/01/10 06:39:38;;;;;;;1.97;1.60;;;5.30;98.00;;;;;;4975660;28;20474;-73
2023/01/10 06:42:06;;;;;;;2.13;1.50;;;5.30;98.00;;;;;;4974857;28;21017;-73
2023/01/10 06:44:34;;;;;;;1.10;1.00;;;5.40;98.00;;;;;;4975294;28;20494;-73
2023/01/10 06:47:01;;;;;;;1.87;1.57;;;5.40;98.00;;;;;;4974661;28;20463;-73
2023/01/10 06:49:28;;;;;;;4.57;1.30;;;5.40;98.00;;;;;;4974236;28;20461;-73
2023/01/10 06:51:56;;;;;;;1.90;1.50;;;5.30;98.00;;;;;;4974542;28;20660;-73
2023/01/10 06:54:24;;;;;;;1.20;1.10;;;5.30;98.00;;;;;;4974283;28;20467;-73
2023/01/10 06:56:51;;;;;;;3.07;2.27;;;5.30;98.00;;;;;;4974296;28;20983;-73
2023/01/10 06:59:20;;;;;;;3.70;1.67;;;5.40;98.00;;;;;;4974512;28;20871;-73
2023/01/10 07:01:47;;;;;;;1.50;1.40;;;5.30;98.00;;;;;;4974776;28;20519;-69
2023/01/10 07:04:16;;;;;;;3.63;1.20;;;5.30;98.00;;;;;;4974325;28;20481;-70
2023/01/10 07:06:43;;;;;;;1.10;1.00;;;5.30;98.00;;;;;;4974396;28;20463;-69
2023/01/10 07:09:14;;;;;;;2.50;1.13;;;5.30;98.00;;;;;;4974583;28;20463;-70
2023/01/10 07:11:41;;;;;;;2.70;1.70;;;5.30;98.00;;;;;;4974404;28;20459;-69
2023/01/10 07:14:08;;;;;;;4.07;1.40;;;5.30;98.00;;;;;;4974757;28;20969;-71
2023/01/10 07:16:44;;;;;;;1.20;1.10;;;5.30;98.00;;;;;;4974356;28;20500;-69
2023/01/10 07:19:13;;;;;;;1.17;1.10;;;5.40;98.00;;;;;;4974245;28;21126;-69
2023/01/10 07:21:40;;;;;;;2.63;1.57;;;5.50;98.00;;;;;;4974078;28;20552;-70
2023/01/10 07:24:08;;;;;;;1.20;1.10;;;5.50;98.00;;;;;;4973975;28;20482;-70
2023/01/10 07:26:36;;;;;;;2.43;1.33;;;5.50;98.00;;;;;;4974138;28;20821;-71
2023/01/10 07:29:03;;;;;;;4.10;1.40;;;5.50;98.00;;;;;;4973920;28;21032;-70
2023/01/10 07:31:30;;;;;;;1.40;1.23;;;5.50;98.00;;;;;;4973905;28;20462;-71
2023/01/10 07:33:59;;;;;;;1.20;1.00;;;5.40;98.00;;;;;;4973983;28;20461;-71
2023/01/10 07:36:26;;;;;;;1.20;1.10;;;5.50;98.00;;;;;;4973549;28;20470;-70
2023/01/10 07:38:54;;;;;;;3.10;1.37;;;5.50;98.00;;;;;;4973974;28;20503;-70
2023/01/10 07:41:21;;;;;;;1.13;1.00;;;5.60;98.00;;;;;;4972451;28;20847;-70
2023/01/10 07:43:48;;;;;;;1.20;1.10;;;5.60;98.00;;;;;;4973709;28;20543;-69
2023/01/10 07:46:15;;;;;;;1.20;1.03;;;5.60;98.00;;;;;;4973580;28;21029;-71
2023/01/10 07:48:45;;;;;;;2.77;1.20;;;5.60;98.00;;;;;;4973728;28;20463;-70
2023/01/10 07:51:13;;;;;;;1.20;1.00;;;5.60;98.00;;;;;;4973494;28;20456;-72
2023/01/10 07:53:43;;;;;;;1.10;1.00;;;5.70;98.00;;;;;;4973624;28;20468;-70
2023/01/10 07:56:10;;;;;;;3.10;1.47;;;5.80;98.00;;;;;;4973693;28;20527;-70
2023/01/10 07:58:37;;;;;;;1.10;0.90;;;5.90;98.00;;;;;;4973507;28;20469;-70
2023/01/10 08:01:06;;;;;;;1.20;1.03;;;6.00;98.00;;;;;;4973644;28;20812;-70
2023/01/10 08:03:34;;;;;;;1.30;1.20;;;6.00;98.00;;;;;;4973275;28;20605;-71
2023/01/10 08:06:05;;;;;;;1.30;1.00;;;5.90;98.00;;;;;;4973074;28;20470;-71
2023/01/10 08:08:34;;;;;;;2.57;1.20;;;5.90;98.00;;;;;;4971590;28;20522;-70
2023/01/10 08:11:02;;;;;;;1.20;1.10;;;5.90;98.00;;;;;;4973507;28;20497;-70
2023/01/10 08:13:30;;;;;;;1.20;1.00;;;5.90;98.00;;;;;;4972721;28;20465;-71
2023/01/10 08:15:57;;;;;;;1.20;1.10;;;5.90;98.00;;;;;;4973328;28;20531;-70
2023/01/10 08:18:25;;;;;;;3.20;1.60;;;6.00;98.00;;;;;;4973213;28;20458;-70
2023/01/10 08:20:53;;;;;;;1.33;1.20;;;6.00;98.00;;;;;;4973100;28;20507;-71
2023/01/10 08:23:21;;;;;;;1.50;1.10;;;6.00;98.00;;;;;;4972798;28;20458;-72
2023/01/10 08:25:50;;;;;;;4.43;1.57;;;6.00;98.00;;;;;;4973160;28;21013;-70
2023/01/10 08:28:18;;;;;;;2.33;1.47;;;6.00;98.00;;;;;;4972861;28;20553;-71
2023/01/10 08:30:45;;;;;;;1.30;1.10;;;6.00;98.00;;;;;;4972862;28;20465;-70
2023/01/10 08:33:13;;;;;;;1.20;1.10;;;6.00;98.00;;;;;;4972606;28;20468;-70
2023/01/10 08:35:41;;;;;;;2.13;1.83;;;6.10;98.00;;;;;;4971599;28;20474;-69
2023/01/10 08:38:10;;;;;;;1.17;1.03;;;6.20;98.00;;;;;;4972695;28;20460;-71
2023/01/10 08:40:37;;;;;;;5.27;1.30;;;6.30;98.00;;;;;;4972456;28;20460;-71
2023/01/10 08:43:07;;;;;;;1.50;1.30;;;6.20;98.00;;;;;;4972458;28;20472;-70
2023/01/10 08:45:36;;;;;;;1.50;1.20;;;6.30;98.00;;;;;;4972615;28;20503;-71
2023/01/10 08:48:03;;;;;;;1.20;1.00;;;6.20;98.00;;;;;;4972498;28;20999;-71
2023/01/10 08:50:32;;;;;;;1.43;1.10;;;6.10;98.00;;;;;;4972586;28;20472;-71
2023/01/10 08:53:01;;;;;;;1.20;1.20;;;6.20;98.00;;;;;;4972434;28;20850;-71
2023/01/10 08:55:30;;;;;;;2.13;1.10;;;6.30;98.00;;;;;;4975793;28;20819;-71
2023/01/10 08:58:00;;;;;;;1.20;1.10;;;6.30;98.00;;;;;;4986942;28;20444;-71
2023/01/10 09:00:29;;;;;;;1.33;1.10;;;6.30;98.00;;;;;;4982819;28;20525;-71
2023/01/10 09:02:56;;;;;;;1.60;1.30;;;6.20;98.00;;;;;;4980474;28;20515;-71
2023/01/10 09:05:24;;;;;;;1.33;1.13;;;6.20;98.00;;;;;;4970648;28;20827;-70
2023/01/10 09:07:52;;;;;;;1.20;1.20;;;6.20;98.00;;;;;;4980351;28;20569;-71
2023/01/10 09:10:20;;;;;;;2.60;1.10;;;6.20;98.00;;;;;;4987452;28;20466;-71
2023/01/10 09:12:55;;;;;;;2.90;1.10;;;6.40;98.00;;;;;;4980455;28;20519;-71
2023/01/10 09:15:24;;;;;;;1.20;1.13;;;6.40;98.00;;;;;;4986885;28;20554;-71
2023/01/10 09:17:55;;;;;;;3.17;1.27;;;6.30;98.00;;;;;;4979569;28;21005;-70
2023/01/10 09:20:23;;;;;;;1.20;1.00;;;6.40;98.00;;;;;;4990774;28;20455;-70
2023/01/10 09:22:50;;;;;;;1.27;1.27;;;6.50;98.00;;;;;;4982924;28;20472;-67
2023/01/10 09:25:18;;;;;;;1.20;1.10;;;6.50;98.00;;;;;;4983639;28;20513;-70
2023/01/10 09:27:45;;;;;;;1.20;1.00;;;6.50;98.00;;;;;;4992486;28;20825;-70
2023/01/10 09:30:13;;;;;;;1.57;1.50;;;6.50;98.00;;;;;;4974880;28;20459;-71
2023/01/10 09:32:40;;;;;;;1.50;1.37;;;6.60;98.00;;;;;;4991630;28;20452;-70
2023/01/10 09:35:09;;;;;;;1.20;1.10;;;6.60;98.00;;;;;;4965748;28;20465;-69
2023/01/10 09:37:36;;;;;;;1.30;1.10;;;6.60;98.00;;;;;;4975733;28;20516;-69
2023/01/10 09:40:06;;;;;;;1.23;1.03;;;6.60;98.00;;;;;;4981479;28;20551;-69
2023/01/10 09:42:54;;;;;;;1.20;1.10;;;6.60;98.00;;;;;;4974528;28;20554;-70
2023/01/10 09:45:29;;;;;;;1.40;1.30;;;6.50;98.00;;;;;;4966617;28;20583;-70
2023/01/10 09:48:00;;;;;;;2.63;1.60;;;6.50;98.00;;;;;;4991542;28;21036;-69
2023/01/10 09:50:37;;;;;;;1.57;1.10;;;6.50;98.00;;;;;;4955420;28;20489;-70
2023/01/10 09:53:12;;;;;;;1.37;1.30;;;6.50;98.00;;;;;;4979164;28;20468;-71
2023/01/10 09:55:40;;;;;;;1.30;1.13;;;6.60;98.00;;;;;;4985737;28;20483;-70
2023/01/10 09:58:13;;;;;;;1.10;1.00;;;6.60;98.00;;;;;;4973444;28;20464;-69
2023/01/10 10:00:44;;;;;;;2.77;1.30;;;6.70;98.00;;;;;;4981392;28;20510;-70
2023/01/10 10:03:31;;;;;;;1.50;1.10;;;6.70;98.00;;;;;;4981267;28;20458;-68
2023/01/10 10:06:00;;;;;;;2.43;1.20;;;6.70;98.00;;;;;;4966023;28;20500;-70
2023/01/10 10:08:27;;;;;;;1.20;1.10;;;6.70;98.00;;;;;;4977359;28;20525;-69
2023/01/10 10:11:09;;;;;;;1.80;1.20;;;6.70;98.00;;;;;;4988931;28;20870;-71
2023/01/10 10:13:48;;;;;;;5.67;1.67;;;6.70;98.00;;;;;;4981668;28;20884;-70
2023/01/10 10:16:29;;;;;;;1.30;1.03;;;6.80;98.00;;;;;;4986900;28;20452;-70
2023/01/10 10:19:03;;;;;;;1.60;1.30;;;6.80;98.00;;;;;;4987213;28;20462;-69
2023/01/10 10:21:43;;;;;;;1.20;1.10;;;6.80;98.00;;;;;;4984969;28;20461;-75
2023/01/10 10:24:33;;;;;;;1.43;1.13;;;6.70;98.00;;;;;;4986669;28;20469;-74
2023/01/10 10:27:09;;;;;;;3.10;1.30;;;6.80;98.00;;;;;;4956264;28;20461;-74
2023/01/10 10:30:04;;;;;;;2.20;1.40;;;6.70;98.00;;;;;;4990719;28;20488;-73
2023/01/10 10:32:47;;;;;;;1.30;1.23;;;6.80;98.00;;;;;;4991006;28;20452;-72
2023/01/10 10:35:29;;;;;;;2.57;1.33;;;6.80;98.00;;;;;;4977735;28;20466;-73
2023/01/10 10:38:04;;;;;;;1.93;1.50;;;6.80;98.00;;;;;;4972693;28;20472;-75
2023/01/10 10:40:36;;;;;;;1.30;1.30;;;6.80;98.00;;;;;;4982414;28;20467;-76
2023/01/10 10:43:15;;;;;;;3.03;1.20;;;6.80;98.00;;;;;;4982722;28;20482;-75
2023/01/10 10:45:46;;;;;;;1.37;1.30;;;6.80;98.00;;;;;;4989875;28;20495;-76
2023/01/10 10:48:17;;;;;;;1.17;1.07;;;6.90;98.00;;;;;;4990727;28;20464;-78
2023/01/10 10:50:54;;;;;;;1.17;1.10;;;7.00;98.00;;;;;;4986889;28;20507;-72
2023/01/10 10:53:22;;;;;;;1.40;1.30;;;7.00;98.00;;;;;;4991996;28;20467;-76
2023/01/10 10:55:49;;;;;;;1.30;1.10;;;7.00;98.00;;;;;;4981761;28;20999;-74
2023/01/10 10:58:17;;;;;;;1.50;1.30;;;7.20;98.00;;;;;;4983008;28;20475;-75
2023/01/10 11:00:45;;;;;;;1.20;1.07;;;7.20;98.00;;;;;;4983890;28;20463;-75
2023/01/10 11:03:32;;;;;;;1.50;1.20;;;7.10;98.00;;;;;;4981882;28;20457;-74
2023/01/10 11:06:01;;;;;;;1.23;1.13;;;7.10;98.00;;;;;;4975733;28;20497;-73
2023/01/10 11:08:32;;;;;;;6.60;1.97;;;7.00;98.00;;;;;;4977537;28;20462;-73
2023/01/10 11:11:02;;;;;;;2.33;1.10;;;7.00;98.00;;;;;;4955253;28;20472;-81
2023/01/10 11:13:43;;;;;;;4.80;2.43;;;7.00;98.00;;;;;;4972955;28;20508;-82
2023/01/10 11:16:25;;;;;;;1.80;1.20;;;7.10;98.00;;;;;;4978173;28;20475;-78
2023/01/10 11:19:11;;;;;;;1.30;1.20;;;7.10;98.00;;;;;;4984900;28;20458;-73
2023/01/10 11:21:40;;;;;;;1.20;1.00;;;7.00;98.00;;;;;;4972411;28;20963;-73
2023/01/10 11:24:24;;;;;;;3.57;1.63;;;7.10;98.00;;;;;;4983436;28;20521;-73
2023/01/10 11:26:52;;;;;;;1.10;1.10;;;7.10;98.00;;;;;;4968716;28;20480;-73
2023/01/10 11:29:22;;;;;;;1.20;1.00;;;7.00;98.00;;;;;;4981481;28;20462;-73
2023/01/10 11:31:50;;;;;;;1.93;1.30;;;7.00;98.00;;;;;;4984716;28;21165;-73
2023/01/10 11:34:25;;;;;;;1.10;1.00;;;7.20;98.00;;;;;;4988578;28;20888;-73
2023/01/10 11:37:01;;;;;;;1.63;1.20;;;7.10;98.00;;;;;;4972217;28;20465;-73
2023/01/10 11:39:31;;;;;;;3.13;1.87;;;7.00;98.00;;;;;;4971567;28;20462;-73
2023/01/10 11:42:28;;;;;;;1.40;1.20;;;7.10;98.00;;;;;;4981875;28;20508;-73
2023/01/10 11:44:55;;;;;;;1.10;1.00;;;7.00;98.00;;;;;;4984548;28;20580;-72
2023/01/10 11:47:22;;;;;;;1.30;1.10;;;7.00;98.00;;;;;;4974012;28;20840;-73
2023/01/10 11:49:50;;;;;;;1.70;1.67;;;7.00;98.00;;;;;;4972860;28;20491;-73
2023/01/10 11:52:23;;;;;;;2.53;1.13;;;7.00;98.00;;;;;;4971462;28;20453;-73
2023/01/10 11:54:53;;;;;;;1.33;1.20;;;6.90;98.00;;;;;;4980295;28;20471;-73
2023/01/10 11:57:22;;;;;;;1.63;1.40;;;6.80;98.00;;;;;;4980886;28;20455;-73
2023/01/10 11:59:54;;;;;;;1.47;1.00;;;6.70;98.00;;;;;;4973398;28;20472;-73
2023/01/10 12:02:25;;;;;;;1.30;1.20;;;6.70;98.00;;;;;;4980609;28;20821;-72
2023/01/10 12:04:54;;;;;;;1.83;1.13;;;6.70;98.00;;;;;;4973608;28;20803;-72
2023/01/10 12:07:21;;;;;;;1.20;1.10;;;6.80;98.00;;;;;;4990927;28;20961;-73
2023/01/10 12:09:58;;;;;;;6.90;1.47;;;6.70;98.00;;;;;;4989630;28;20465;-73
2023/01/10 12:12:27;;;;;;;10.37;1.60;;;6.90;98.00;;;;;;4973832;28;20468;-72
2023/01/10 12:15:04;;;;;;;1.20;1.10;;;7.00;98.00;;;;;;4975335;28;20477;-72
2023/01/10 12:17:34;;;;;;;1.20;1.07;;;7.10;98.00;;;;;;4981309;28;20464;-73
2023/01/10 12:20:12;;;;;;;1.30;1.10;;;7.10;98.00;;;;;;4971425;28;20467;-73
2023/01/10 12:22:41;;;;;;;1.20;1.10;;;7.10;98.00;;;;;;4971541;28;20467;-73
2023/01/10 12:25:20;;;;;;;1.20;1.10;;;7.10;98.00;;;;;;4985249;28;20488;-73
2023/01/10 12:27:49;;;;;;;1.27;1.20;;;7.10;98.00;;;;;;4990038;28;20536;-73
2023/01/10 12:30:20;;;;;;;1.20;1.10;;;7.30;98.00;;;;;;4966022;28;20933;-73
2023/01/10 12:32:53;;;;;;;1.77;1.30;;;7.40;98.00;;;;;;4959609;28;20973;-73
2023/01/10 12:35:23;;;;;;;1.70;1.20;;;7.40;98.00;;;;;;4981934;28;20469;-73
2023/01/10 12:37:57;;;;;;;1.67;1.30;;;7.30;98.00;;;;;;4980835;28;20470;-73
2023/01/10 12:40:38;;;;;;;2.03;1.30;;;7.20;98.00;;;;;;4980725;28;20467;-73
2023/01/10 12:46:03;;;;;;;1.63;1.20;;;7.70;98.00;;;;;;4967022;28;20510;-73
2023/01/10 12:48:41;;;;;;;4.70;1.40;;;8.60;98.00;;;;;;4988172;28;20834;-73
2023/01/10 12:51:16;;;;;;;1.30;1.10;;;8.50;98.00;;;;;;4975376;28;20461;-73
2023/01/10 12:53:46;;;;;;;1.23;1.07;;;8.00;98.00;;;;;;4975007;28;20495;-73
2023/01/10 12:56:17;;;;;;;1.30;1.20;;;7.70;98.00;;;;;;4970333;28;20462;-71
2023/01/10 12:58:48;;;;;;;3.83;1.33;;;7.70;98.00;;;;;;4973074;28;20468;-71
2023/01/10 13:01:18;;;;;;;1.20;1.00;;;7.70;98.00;;;;;;4955870;28;20458;-71
2023/01/10 13:03:49;;;;;;;1.77;1.47;;;7.70;98.00;;;;;;4973161;28;20466;-71
2023/01/10 13:06:24;;;;;;;3.40;1.37;;;7.60;98.00;;;;;;4973082;28;20490;-71
2023/01/10 13:08:52;;;;;;;1.73;1.20;;;7.50;98.00;;;;;;4973168;28;20462;-71
2023/01/10 13:11:25;;;;;;;1.23;1.13;;;7.60;98.00;;;;;;4973266;28;20461;-71
2023/01/10 13:13:59;;;;;;;1.30;1.10;;;7.60;98.00;;;;;;4973251;28;20842;-71
2023/01/10 13:16:42;;;;;;;2.27;1.10;;;7.50;98.00;;;;;;4973196;28;21266;-71
2023/01/10 13:19:24;;;;;;;1.40;1.00;;;7.50;98.00;;;;;;4973403;28;20460;-72
2023/01/10 13:22:07;;;;;;;1.17;1.10;;;7.50;98.00;;;;;;4973272;28;20533;-72
2023/01/10 13:24:37;;;;;;;6.50;1.83;;;7.40;98.00;;;;;;4972796;28;20461;-72
2023/01/10 13:27:05;;;;;;;6.23;1.33;;;7.40;98.00;;;;;;4972861;28;20863;-72
2023/01/10 13:29:40;;;;;;;1.90;1.20;;;7.40;98.00;;;;;;4972987;28;20841;-72